Time;durP1;ratioP1;P1;durP2;ratioP2;P2;SDS_P1;SDS_P2;PMS_P1;PMS_P2;Temp;Humidity;BMP_temperature;BMP_pressure;BME280_temperature;BME280_humidity;BME280_pressure;Samples;Min_cycle;Max_cycle;Signal;HPM_P1;HPM_P2
2023/02/07 00:01:29;;;;;;;;;;;;;;;16.82;62.02;102723.41;7400363;19;1691;-41
2023/02/07 00:04:00;;;;;;;;;;;;;;;17.43;60.51;102727.56;7398403;19;1885;-40
2023/02/07 00:06:30;;;;;;;;;;;;;;;17.77;59.85;102707.94;7401593;19;1734;-41
2023/02/07 00:09:00;;;;;;;;;;;;;;;18.05;58.77;102707.38;7401057;19;1819;-41
2023/02/07 00:11:29;;;;;;;;;;;;;;;18.10;58.56;102715.16;7401143;19;1983;-40
2023/02/07 00:14:00;;;;;;;;;;;;;;;18.00;58.95;102717.47;7399817;19;1860;-41
2023/02/07 00:16:29;;;;;;;;;;;;;;;18.08;58.89;102730.44;7400416;19;1923;-41
2023/02/07 00:18:58;;;;;;;;;;;;;;;18.16;58.42;102720.19;7400436;19;1973;-41
2023/02/07 00:21:27;;;;;;;;;;;;;;;18.16;58.47;102717.50;7401555;19;1880;-41
2023/02/07 00:23:56;;;;;;;;;;;;;;;18.25;58.29;102711.66;7401203;19;1676;-41
2023/02/07 00:26:25;;;;;;;;;;;;;;;18.28;57.92;102706.16;7400866;19;1615;-41
2023/02/07 00:28:54;;;;;;;;;;;;;;;18.24;58.19;102707.28;7401522;19;1939;-41
2023/02/07 00:31:26;;;;;;;;;;;;;;;18.14;58.41;102719.41;7401774;19;1955;-41
2023/02/07 00:33:56;;;;;;;;;;;;;;;17.99;59.10;102714.88;7399503;19;2082;-41
2023/02/07 00:36:27;;;;;;;;;;;;;;;17.84;59.28;102714.72;7399935;19;1673;-40
2023/02/07 00:38:57;;;;;;;;;;;;;;;17.78;59.14;102711.47;7399593;19;1991;-41
2023/02/07 00:41:26;;;;;;;;;;;;;;;17.84;58.98;102709.38;7399800;19;1788;-41
2023/02/07 00:43:54;;;;;;;;;;;;;;;17.85;59.14;102708.44;7399568;19;1674;-41
2023/02/07 00:46:23;;;;;;;;;;;;;;;17.40;60.18;102701.81;7399900;19;1046;-41
2023/02/07 00:48:54;;;;;;;;;;;;;;;16.93;61.20;102723.75;7398217;19;1671;-41
2023/02/07 00:51:24;;;;;;;;;;;;;;;16.66;62.61;102726.75;7401159;19;1838;-41
2023/02/07 00:53:53;;;;;;;;;;;;;;;16.48;62.68;102724.97;7399482;19;1961;-40
2023/02/07 00:56:22;;;;;;;;;;;;;;;16.38;63.54;102729.84;7400224;19;1795;-41
2023/02/07 00:58:50;;;;;;;;;;;;;;;16.34;63.38;102714.06;7400634;19;1888;-41
2023/02/07 01:01:19;;;;;;;;;;;;;;;16.23;63.56;102718.06;7397467;19;2052;-41
2023/02/07 01:03:47;;;;;;;;;;;;;;;16.19;63.78;102719.13;7401831;19;1591;-41
2023/02/07 01:06:18;;;;;;;;;;;;;;;16.14;64.09;102721.16;7406174;19;1658;-41
2023/02/07 01:08:46;;;;;;;;;;;;;;;16.12;64.22;102715.03;7407727;19;1891;-41
2023/02/07 01:11:17;;;;;;;;;;;;;;;16.07;64.08;102714.34;7407526;19;1865;-41
2023/02/07 01:13:45;;;;;;;;;;;;;;;15.99;64.31;102690.66;7405941;19;1846;-41
2023/02/07 01:16:20;;;;;;;;;;;;;;;15.96;64.45;102701.50;7406618;19;1637;-41
2023/02/07 01:18:49;;;;;;;;;;;;;;;15.95;64.32;102706.91;7404819;19;1507;-41
2023/02/07 01:21:21;;;;;;;;;;;;;;;15.89;64.58;102711.56;7406762;19;1693;-41
2023/02/07 01:23:49;;;;;;;;;;;;;;;15.84;64.30;102694.91;7404709;19;1789;-41
2023/02/07 01:26:18;;;;;;;;;;;;;;;15.82;64.77;102704.78;7405449;19;1799;-41
2023/02/07 01:28:46;;;;;;;;;;;;;;;15.83;64.79;102709.16;7406893;19;1857;-41
2023/02/07 01:31:15;;;;;;;;;;;;;;;15.78;64.67;102695.19;7406992;19;1640;-41
2023/02/07 01:33:43;;;;;;;;;;;;;;;15.77;64.67;102708.56;7405956;19;1852;-41
2023/02/07 01:36:13;;;;;;;;;;;;;;;15.74;64.50;102692.69;7406190;19;1681;-41
2023/02/07 01:38:44;;;;;;;;;;;;;;;15.75;64.97;102697.97;7404537;19;1908;-41
2023/02/07 01:41:14;;;;;;;;;;;;;;;15.69;64.59;102703.53;7404419;19;2014;-41
2023/02/07 01:43:56;;;;;;;;;;;;;;;15.66;64.91;102701.88;7404711;19;1734;-40
2023/02/07 01:46:24;;;;;;;;;;;;;;;15.64;65.14;102698.41;7406250;19;1008;-41
2023/02/07 01:48:54;;;;;;;;;;;;;;;15.60;64.97;102690.63;7405456;19;1875;-41
2023/02/07 01:51:23;;;;;;;;;;;;;;;15.61;64.97;102708.34;7404100;19;1654;-41
2023/02/07 01:53:56;;;;;;;;;;;;;;;15.57;64.73;102701.41;7404708;19;1850;-41
2023/02/07 01:56:24;;;;;;;;;;;;;;;15.57;64.94;102696.06;7405610;19;1588;-41
2023/02/07 01:58:53;;;;;;;;;;;;;;;15.58;65.15;102690.69;7406851;19;1891;-41
2023/02/07 02:01:24;;;;;;;;;;;;;;;15.57;65.00;102704.06;7403739;19;1850;-41
2023/02/07 02:03:55;;;;;;;;;;;;;;;15.57;64.98;102701.41;7405104;19;1882;-41
2023/02/07 02:06:24;;;;;;;;;;;;;;;15.56;65.40;102699.66;7405600;19;1840;-41
2023/02/07 02:08:56;;;;;;;;;;;;;;;15.51;65.40;102703.38;7404613;19;1763;-41
2023/02/07 02:11:37;;;;;;;;;;;;;;;15.54;65.05;102712.19;7405078;19;1963;-41
2023/02/07 02:14:11;;;;;;;;;;;;;;;15.48;65.00;102706.19;7404951;19;1899;-41
2023/02/07 02:16:42;;;;;;;;;;;;;;;15.52;65.40;102715.81;7406287;19;1487;-41
2023/02/07 02:19:26;;;;;;;;;;;;;;;15.91;63.48;102715.03;7404656;19;2033;-41
2023/02/07 02:22:07;;;;;;;;;;;;;;;15.89;63.85;102711.56;7404118;19;2029;-41
2023/02/07 02:24:53;;;;;;;;;;;;;;;15.66;64.61;102727.69;7403158;19;1906;-41
2023/02/07 02:27:33;;;;;;;;;;;;;;;15.55;64.42;102692.59;7403646;19;2016;-41
2023/02/07 02:30:13;;;;;;;;;;;;;;;15.69;64.60;102711.53;7404730;19;1926;-41
2023/02/07 02:32:54;;;;;;;;;;;;;;;16.48;61.79;102704.44;7403182;19;1748;-41
2023/02/07 02:35:25;;;;;;;;;;;;;;;17.10;59.96;102699.72;7403485;19;1882;-40
2023/02/07 02:37:57;;;;;;;;;;;;;;;17.65;58.81;102700.56;7400811;19;2080;-41
2023/02/07 02:40:30;;;;;;;;;;;;;;;18.06;57.74;102721.63;7403149;19;1814;-41
2023/02/07 02:43:03;;;;;;;;;;;;;;;18.33;57.34;102718.44;7404449;19;1825;-41
2023/02/07 02:45:34;;;;;;;;;;;;;;;18.34;57.11;102714.78;7404093;19;1679;-41
2023/02/07 02:48:06;;;;;;;;;;;;;;;18.39;56.90;102713.59;7400509;19;2130;-41
2023/02/07 02:50:36;;;;;;;;;;;;;;;18.88;55.72;102726.97;7404328;19;2153;-41
2023/02/07 02:53:04;;;;;;;;;;;;;;;19.10;55.25;102715.03;7403508;19;1876;-41
2023/02/07 02:55:44;;;;;;;;;;;;;;;19.07;55.15;102708.00;7404031;19;1836;-41
2023/02/07 02:58:17;;;;;;;;;;;;;;;19.30;54.75;102721.91;7404717;19;1597;-41
2023/02/07 03:00:51;;;;;;;;;;;;;;;19.40;54.36;102703.47;7402818;19;2315;-41
2023/02/07 03:03:29;;;;;;;;;;;;;;;19.41;54.68;102708.72;7401947;19;1900;-41
2023/02/07 03:06:06;;;;;;;;;;;;;;;19.44;54.50;102732.69;7403639;19;1650;-41
2023/02/07 03:08:38;;;;;;;;;;;;;;;19.44;54.46;102708.53;7402021;19;1982;-41
2023/02/07 03:11:09;;;;;;;;;;;;;;;19.41;54.31;102700.66;7401683;19;1433;-41
2023/02/07 03:13:41;;;;;;;;;;;;;;;19.42;54.73;102707.78;7402641;19;1749;-40
2023/02/07 03:16:13;;;;;;;;;;;;;;;19.54;54.47;102703.50;7400913;19;1850;-41
2023/02/07 03:18:48;;;;;;;;;;;;;;;19.46;54.43;102716.50;7402144;19;1628;-41
2023/02/07 03:21:20;;;;;;;;;;;;;;;19.55;54.48;102717.78;7403052;19;1682;-40
2023/02/07 03:23:49;;;;;;;;;;;;;;;19.48;54.63;102712.78;7402695;19;1875;-40
2023/02/07 03:26:18;;;;;;;;;;;;;;;19.54;54.20;102708.00;7400226;19;1588;-41
2023/02/07 03:28:47;;;;;;;;;;;;;;;19.54;54.42;102719.59;7402008;19;1696;-41
2023/02/07 03:31:17;;;;;;;;;;;;;;;19.62;54.34;102727.19;7401958;19;1789;-41
2023/02/07 03:33:49;;;;;;;;;;;;;;;19.52;54.24;102720.63;7401428;19;2020;-40
2023/02/07 03:36:20;;;;;;;;;;;;;;;19.56;54.22;102719.50;7399320;19;1867;-41
2023/02/07 03:38:48;;;;;;;;;;;;;;;19.47;54.70;102719.06;7401060;19;1840;-41
2023/02/07 03:41:20;;;;;;;;;;;;;;;19.43;54.31;102724.72;7401520;19;1616;-41
2023/02/07 03:43:48;;;;;;;;;;;;;;;19.42;54.50;102720.34;7401659;19;1825;-41
2023/02/07 03:46:17;;;;;;;;;;;;;;;19.36;54.65;102718.88;7402887;19;1671;-41
2023/02/07 03:48:47;;;;;;;;;;;;;;;19.39;54.40;102732.09;7401057;19;2144;-41
2023/02/07 03:51:16;;;;;;;;;;;;;;;19.32;54.46;102717.31;7402153;19;1886;-41
2023/02/07 03:53:44;;;;;;;;;;;;;;;19.33;54.50;102724.41;7400732;19;1822;-41
2023/02/07 03:56:12;;;;;;;;;;;;;;;19.38;54.52;102729.50;7401299;19;1882;-41
2023/02/07 03:58:40;;;;;;;;;;;;;;;19.39;54.64;102726.72;7401501;19;1893;-41
2023/02/07 04:01:09;;;;;;;;;;;;;;;19.19;54.80;102713.63;7401683;19;1131;-41
2023/02/07 04:03:37;;;;;;;;;;;;;;;18.27;56.54;102725.84;7400674;19;1904;-41
2023/02/07 04:06:08;;;;;;;;;;;;;;;17.76;58.31;102737.47;7400750;19;1925;-41
2023/02/07 04:08:36;;;;;;;;;;;;;;;17.38;59.24;102759.00;7401613;19;1617;-41
2023/02/07 04:11:05;;;;;;;;;;;;;;;17.07;59.75;102741.81;7401719;19;1898;-40
2023/02/07 04:13:34;;;;;;;;;;;;;;;17.04;60.63;102742.78;7401292;19;1547;-40
2023/02/07 04:16:02;;;;;;;;;;;;;;;17.68;58.96;102724.47;7400564;19;1853;-40
2023/02/07 04:18:30;;;;;;;;;;;;;;;18.51;56.95;102749.56;7397976;19;2082;-40
2023/02/07 04:21:03;;;;;;;;;;;;;;;18.77;56.08;102752.63;7400310;19;1944;-41
2023/02/07 04:23:34;;;;;;;;;;;;;;;18.83;56.20;102750.47;7399633;19;1927;-41
2023/02/07 04:26:03;;;;;;;;;;;;;;;18.94;55.63;102757.06;7400921;19;1803;-41
2023/02/07 04:28:31;;;;;;;;;;;;;;;18.97;55.65;102744.34;7400846;19;1660;-41
2023/02/07 04:31:00;;;;;;;;;;;;;;;18.92;55.54;102743.75;7401281;19;1677;-41
2023/02/07 04:33:28;;;;;;;;;;;;;;;18.84;55.88;102735.25;7400288;19;1838;-40
2023/02/07 04:35:57;;;;;;;;;;;;;;;18.72;56.07;102752.88;7399806;19;1865;-40
2023/02/07 04:38:26;;;;;;;;;;;;;;;18.50;56.52;102761.22;7403409;19;1749;-40
2023/02/07 04:40:59;;;;;;;;;;;;;;;18.36;56.88;102750.38;7408177;19;1608;-40
2023/02/07 04:43:27;;;;;;;;;;;;;;;18.38;56.86;102759.22;7407906;19;1713;-41
2023/02/07 04:45:56;;;;;;;;;;;;;;;18.49;56.49;102762.19;7408741;19;1636;-41
2023/02/07 04:48:24;;;;;;;;;;;;;;;18.65;55.95;102757.69;7407899;19;2095;-40
2023/02/07 04:50:52;;;;;;;;;;;;;;;18.56;56.18;102774.31;7407938;19;2111;-40
2023/02/07 04:53:21;;;;;;;;;;;;;;;18.58;56.17;102764.38;7408803;19;1922;-41
2023/02/07 04:55:49;;;;;;;;;;;;;;;18.72;55.77;102773.44;7405919;19;1856;-40
2023/02/07 04:58:20;;;;;;;;;;;;;;;18.77;55.69;102774.06;7407148;19;1689;-41
2023/02/07 05:00:49;;;;;;;;;;;;;;;18.79;55.46;102774.84;7407236;19;1702;-41
2023/02/07 05:03:17;;;;;;;;;;;;;;;18.78;55.61;102767.75;7406576;19;1634;-41
2023/02/07 05:05:46;;;;;;;;;;;;;;;18.90;55.43;102767.13;7406538;19;1844;-41
2023/02/07 05:08:15;;;;;;;;;;;;;;;18.90;55.49;102768.91;7407355;19;1938;-40
2023/02/07 05:10:43;;;;;;;;;;;;;;;18.88;55.11;102774.38;7403654;19;1679;-41
2023/02/07 05:13:11;;;;;;;;;;;;;;;18.91;55.08;102781.38;7307641;19;15004;-40
2023/02/07 05:15:44;;;;;;;;;;;;;;;19.00;55.27;102784.41;7403231;19;1844;-41
2023/02/07 05:18:12;;;;;;;;;;;;;;;19.06;54.61;102786.75;7404292;19;1643;-40
2023/02/07 05:20:40;;;;;;;;;;;;;;;18.88;54.86;102785.97;7404271;19;1689;-40
2023/02/07 05:23:09;;;;;;;;;;;;;;;19.02;54.63;102786.97;7404678;19;1964;-41
2023/02/07 05:25:37;;;;;;;;;;;;;;;19.17;54.61;102785.25;7405944;19;2128;-41
2023/02/07 05:28:05;;;;;;;;;;;;;;;17.90;53.97;102625.22;7405516;19;2053;-40
2023/02/07 05:30:34;;;;;;;;;;;;;;;18.98;54.56;102818.47;7404480;19;1687;-41
2023/02/07 05:33:02;;;;;;;;;;;;;;;19.02;54.29;102814.69;7401848;19;1759;-40
2023/02/07 05:35:31;;;;;;;;;;;;;;;19.05;54.75;102802.91;7404185;19;1845;-41
2023/02/07 05:37:59;;;;;;;;;;;;;;;19.02;54.72;102809.31;7405334;19;1990;-41
2023/02/07 05:40:27;;;;;;;;;;;;;;;18.95;55.51;102815.97;7405508;19;1909;-41
2023/02/07 05:42:56;;;;;;;;;;;;;;;19.03;54.93;102805.66;7405596;19;1518;-40
2023/02/07 05:45:24;;;;;;;;;;;;;;;18.94;54.95;102792.78;7404521;19;1439;-40
2023/02/07 05:47:52;;;;;;;;;;;;;;;18.98;54.67;102813.13;7405265;19;1793;-41
2023/02/07 05:50:23;;;;;;;;;;;;;;;18.83;54.83;102813.97;7404049;19;1791;-41
2023/02/07 05:52:52;;;;;;;;;;;;;;;18.80;54.03;102820.38;7402258;19;1665;-41
2023/02/07 05:55:20;;;;;;;;;;;;;;;18.82;53.94;102817.56;7404381;19;1903;-40
2023/02/07 05:57:49;;;;;;;;;;;;;;;18.84;54.24;102821.94;7403346;19;2353;-41
2023/02/07 06:00:18;;;;;;;;;;;;;;;18.99;53.59;102824.69;7405382;19;1859;-41
2023/02/07 06:02:50;;;;;;;;;;;;;;;19.02;52.94;102824.50;6565363;19;10000719;-41
2023/02/07 06:05:20;;;;;;;;;;;;;;;18.97;53.66;102835.50;7395020;19;1855;-41
2023/02/07 06:07:52;;;;;;;;;;;;;;;18.91;53.42;102841.22;7400616;19;2089;-41
2023/02/07 06:10:20;;;;;;;;;;;;;;;19.05;53.06;102829.72;7399771;19;1582;-41
2023/02/07 06:12:49;;;;;;;;;;;;;;;19.20;52.93;102833.34;7401136;19;2080;-41
2023/02/07 06:15:17;;;;;;;;;;;;;;;19.23;52.89;102825.13;7399383;19;2041;-41
2023/02/07 06:17:45;;;;;;;;;;;;;;;19.27;53.04;102829.38;7397295;19;1958;-40
2023/02/07 06:20:14;;;;;;;;;;;;;;;19.17;52.74;102839.75;7399400;19;1755;-41
2023/02/07 06:22:42;;;;;;;;;;;;;;;19.27;52.59;102848.16;7399174;19;1844;-41
2023/02/07 06:25:13;;;;;;;;;;;;;;;19.16;52.77;102815.69;7399867;19;1996;-42
2023/02/07 06:27:41;;;;;;;;;;;;;;;19.26;52.73;102836.56;6883596;19;10000533;-41
2023/02/07 06:30:11;;;;;;;;;;;;;;;19.32;52.09;102830.00;7395656;19;1680;-41
2023/02/07 06:32:39;;;;;;;;;;;;;;;19.37;51.99;102840.44;7398388;19;1525;-41
2023/02/07 06:35:09;;;;;;;;;;;;;;;19.34;52.76;102840.63;7390546;19;1835;-41
2023/02/07 06:37:37;;;;;;;;;;;;;;;19.36;52.75;102842.28;7397315;19;1893;-41
2023/02/07 06:40:06;;;;;;;;;;;;;;;19.44;52.64;102842.69;7399147;19;1517;-41
2023/02/07 06:42:37;;;;;;;;;;;;;;;19.42;52.63;102831.19;7402754;19;2050;-41
2023/02/07 06:45:06;;;;;;;;;;;;;;;19.37;52.97;102835.09;7402311;19;2033;-41
2023/02/07 06:47:34;;;;;;;;;;;;;;;19.37;53.31;102827.91;7400260;19;1813;-40
2023/02/07 06:50:03;;;;;;;;;;;;;;;19.37;53.75;102827.03;7401431;19;1822;-41
2023/02/07 06:52:31;;;;;;;;;;;;;;;19.23;53.42;102822.47;7404130;19;1053;-41
2023/02/07 06:55:00;;;;;;;;;;;;;;;18.55;55.42;102831.50;7402121;19;1707;-41
2023/02/07 06:57:28;;;;;;;;;;;;;;;17.98;57.72;102810.38;7399205;19;1850;-41
2023/02/07 07:00:00;;;;;;;;;;;;;;;17.67;58.34;102827.09;7401709;19;1646;-40
2023/02/07 07:02:28;;;;;;;;;;;;;;;17.54;58.54;102816.13;7396714;19;1842;-40
2023/02/07 07:04:56;;;;;;;;;;;;;;;17.46;59.08;102829.88;7401598;19;1622;-40
2023/02/07 07:07:25;;;;;;;;;;;;;;;17.57;59.02;102820.50;7400980;19;1580;-40
2023/02/07 07:09:53;;;;;;;;;;;;;;;18.42;57.27;102825.06;7401468;19;1947;-41
2023/02/07 07:12:22;;;;;;;;;;;;;;;19.07;55.10;102823.31;7401449;19;3015;-41
2023/02/07 07:14:50;;;;;;;;;;;;;;;19.29;54.49;102822.09;7401208;19;1611;-40
2023/02/07 07:17:21;;;;;;;;;;;;;;;19.22;54.72;102826.09;7401498;19;1920;-41
2023/02/07 07:19:49;;;;;;;;;;;;;;;19.36;54.43;102834.22;7403311;19;1036;-40
2023/02/07 07:22:19;;;;;;;;;;;;;;;19.54;54.13;102826.94;7401846;19;2135;-40
2023/02/07 07:24:49;;;;;;;;;;;;;;;18.65;53.65;102816.66;7400791;19;2109;-40
2023/02/07 07:27:17;;;;;;;;;;;;;;;17.96;54.96;102831.00;7399528;19;1755;-42
2023/02/07 07:29:45;;;;;;;;;;;;;;;17.65;55.38;102834.34;7399304;19;2034;-40
2023/02/07 07:32:15;;;;;;;;;;;;;;;16.88;52.17;102838.00;7400609;19;2043;-40
2023/02/07 07:34:48;;;;;;;;;;;;;;;16.33;50.58;102832.44;7400806;19;1905;-40
2023/02/07 07:37:18;;;;;;;;;;;;;;;15.99;49.73;102836.59;7400365;19;2023;-40
2023/02/07 07:39:46;;;;;;;;;;;;;;;15.85;53.14;102832.69;7400759;19;2041;-40
2023/02/07 07:42:15;;;;;;;;;;;;;;;15.67;51.39;102846.75;7400530;19;1988;-40
2023/02/07 07:44:43;;;;;;;;;;;;;;;15.41;46.36;102832.69;7401073;19;1664;-41
2023/02/07 07:47:12;;;;;;;;;;;;;;;15.09;45.37;102837.47;7400206;19;1798;-40
2023/02/07 07:49:40;;;;;;;;;;;;;;;14.97;43.70;102835.28;7400832;19;1766;-40
2023/02/07 07:52:11;;;;;;;;;;;;;;;14.97;42.60;102840.63;7401467;19;2055;-40
2023/02/07 07:54:40;;;;;;;;;;;;;;;14.96;44.28;102843.34;7400112;19;2010;-40
2023/02/07 07:57:08;;;;;;;;;;;;;;;15.06;44.63;102834.94;7399363;19;1873;-40
2023/02/07 07:59:36;;;;;;;;;;;;;;;15.04;46.22;102826.16;7398909;19;1978;-40
2023/02/07 08:02:05;;;;;;;;;;;;;;;15.20;50.13;102844.19;6879885;19;10000196;-41
2023/02/07 08:04:33;;;;;;;;;;;;;;;15.56;52.32;102832.97;7391275;19;1878;-41
2023/02/07 08:07:01;;;;;;;;;;;;;;;15.81;48.66;102817.75;7394083;19;2047;-40
2023/02/07 08:09:32;;;;;;;;;;;;;;;16.10;50.18;102827.19;7394115;19;1872;-41
2023/02/07 08:12:01;;;;;;;;;;;;;;;16.12;50.83;102816.44;7392238;19;1870;-41
2023/02/07 08:14:29;;;;;;;;;;;;;;;16.15;51.59;102816.28;7394137;19;1645;-41
2023/02/07 08:16:57;;;;;;;;;;;;;;;16.17;52.04;102822.44;7394412;19;1841;-41
2023/02/07 08:19:26;;;;;;;;;;;;;;;16.16;52.24;102819.84;7394435;19;1885;-41
2023/02/07 08:21:54;;;;;;;;;;;;;;;16.16;53.03;102828.72;7395184;19;1960;-41
2023/02/07 08:24:23;;;;;;;;;;;;;;;16.14;52.69;102819.91;7392432;19;2011;-41
2023/02/07 08:26:54;;;;;;;;;;;;;;;16.18;53.41;102824.19;7391366;19;1820;-41
2023/02/07 08:29:22;;;;;;;;;;;;;;;16.20;53.24;102816.97;7392223;19;1627;-41
2023/02/07 08:31:51;;;;;;;;;;;;;;;16.26;53.81;102824.72;7395759;19;1793;-41
2023/02/07 08:34:22;;;;;;;;;;;;;;;15.77;53.36;102844.63;7396070;19;1982;-41
2023/02/07 08:36:51;;;;;;;;;;;;;;;15.42;48.25;102839.75;7394181;19;2057;-41
2023/02/07 08:39:19;;;;;;;;;;;;;;;15.15;45.60;102841.72;7400285;19;1857;-41
2023/02/07 08:41:48;;;;;;;;;;;;;;;15.02;45.94;102833.34;7397412;19;1830;-40
2023/02/07 08:44:19;;;;;;;;;;;;;;;14.95;48.88;102837.16;7398807;19;1742;-40
2023/02/07 08:46:48;;;;;;;;;;;;;;;15.07;48.75;102826.00;7398362;19;1694;-40
2023/02/07 08:49:16;;;;;;;;;;;;;;;15.14;47.48;102825.78;7397191;19;2073;-40
2023/02/07 08:51:44;;;;;;;;;;;;;;;15.36;51.89;102832.00;7398937;19;1932;-41
2023/02/07 08:54:13;;;;;;;;;;;;;;;15.71;51.44;102827.88;7394998;19;2130;-40
2023/02/07 08:56:41;;;;;;;;;;;;;;;15.68;53.61;102837.84;7396448;19;1936;-41
2023/02/07 08:59:09;;;;;;;;;;;;;;;15.97;52.90;102822.44;7397684;19;1673;-41
2023/02/07 09:01:41;;;;;;;;;;;;;;;16.07;52.13;102823.78;7395967;19;1675;-41
2023/02/07 09:04:10;;;;;;;;;;;;;;;16.15;51.49;102821.63;7394640;19;1860;-41
2023/02/07 09:06:39;;;;;;;;;;;;;;;16.18;52.06;102816.19;7398932;19;1532;-41
2023/02/07 09:09:08;;;;;;;;;;;;;;;16.11;51.85;102820.03;7397561;19;1698;-41
2023/02/07 09:11:36;;;;;;;;;;;;;;;16.17;51.28;102830.44;7397512;19;1908;-41
2023/02/07 09:14:05;;;;;;;;;;;;;;;16.21;51.21;102832.03;7398760;19;1790;-40
2023/02/07 09:16:34;;;;;;;;;;;;;;;16.20;50.80;102814.31;7398774;19;1868;-41
2023/02/07 09:19:05;;;;;;;;;;;;;;;16.34;49.90;102813.69;7397728;19;1808;-41
2023/02/07 09:21:33;;;;;;;;;;;;;;;16.89;49.02;102818.34;7398042;19;2063;-40
2023/02/07 09:24:02;;;;;;;;;;;;;;;18.02;46.82;102805.72;7392597;19;2243;-41
2023/02/07 09:26:32;;;;;;;;;;;;;;;18.74;45.85;102812.63;7406072;19;1796;-41
2023/02/07 09:29:00;;;;;;;;;;;;;;;19.50;45.33;102800.34;7403538;19;1595;-41
2023/02/07 09:31:28;;;;;;;;;;;;;;;19.57;45.27;102785.63;7404871;19;1598;-41
2023/02/07 09:33:57;;;;;;;;;;;;;;;19.83;45.41;102792.16;7400747;19;2238;-41
2023/02/07 09:36:29;;;;;;;;;;;;;;;19.03;47.09;102799.44;7403578;19;1849;-41
2023/02/07 09:38:58;;;;;;;;;;;;;;;18.50;48.96;102785.31;7404549;19;1619;-40
2023/02/07 09:41:31;;;;;;;;;;;;;;;18.85;48.12;102772.72;7403835;19;2035;-40
2023/02/07 09:44:05;;;;;;;;;;;;;;;19.41;47.39;102785.66;7398838;19;2038;-39
2023/02/07 09:46:36;;;;;;;;;;;;;;;19.72;47.35;102747.19;7404896;19;1736;-40
2023/02/07 09:49:07;;;;;;;;;;;;;;;20.00;46.88;102778.59;7401407;19;2258;-40
2023/02/07 09:51:38;;;;;;;;;;;;;;;19.96;47.20;102757.41;7401448;19;1504;-40
2023/02/07 09:54:09;;;;;;;;;;;;;;;19.70;48.14;102767.84;7399320;19;1568;-40
2023/02/07 09:56:37;;;;;;;;;;;;;;;19.60;48.23;102759.47;7402640;19;1847;-40
2023/02/07 09:59:08;;;;;;;;;;;;;;;19.53;48.38;102778.72;7404822;19;1659;-41
2023/02/07 10:01:39;;;;;;;;;;;;;;;19.43;49.25;102765.81;7403182;19;1683;-40
2023/02/07 10:04:15;;;;;;;;;;;;;;;19.36;49.68;102748.38;7403226;19;2041;-40
2023/02/07 10:06:49;;;;;;;;;;;;;;;19.34;49.86;102747.59;7403372;19;1976;-40
2023/02/07 10:09:19;;;;;;;;;;;;;;;19.41;49.47;102754.31;7403708;19;1764;-40
2023/02/07 10:11:52;;;;;;;;;;;;;;;19.39;49.83;102737.44;7404577;19;1732;-40
2023/02/07 10:14:28;;;;;;;;;;;;;;;19.44;49.71;102739.88;7402136;19;1445;-40
2023/02/07 10:17:07;;;;;;;;;;;;;;;19.39;50.16;102726.72;7404284;19;1853;-41
2023/02/07 10:19:40;;;;;;;;;;;;;;;19.28;50.62;102739.91;7403494;19;1816;-40
2023/02/07 10:22:18;;;;;;;;;;;;;;;19.35;50.63;102724.31;7404095;19;1853;-40
2023/02/07 10:24:56;;;;;;;;;;;;;;;19.49;50.33;102732.41;7403595;19;2032;-41
2023/02/07 10:27:30;;;;;;;;;;;;;;;19.64;50.50;102725.28;7402566;19;1737;-40
2023/02/07 10:30:02;;;;;;;;;;;;;;;19.63;50.20;102718.16;7402391;19;1936;-41
2023/02/07 10:32:33;;;;;;;;;;;;;;;19.56;50.27;102736.47;7401544;19;1811;-41
2023/02/07 10:35:04;;;;;;;;;;;;;;;19.47;51.08;102723.59;7402143;19;1414;-40
2023/02/07 10:37:39;;;;;;;;;;;;;;;19.48;50.96;102736.91;7403152;19;1846;-41
2023/02/07 10:40:13;;;;;;;;;;;;;;;19.42;50.80;102731.91;7403636;19;1721;-40
2023/02/07 10:42:44;;;;;;;;;;;;;;;19.39;50.96;102716.00;7404277;19;1847;-40
2023/02/07 10:45:14;;;;;;;;;;;;;;;19.48;51.17;102719.97;7397634;19;2026;-41
2023/02/07 10:47:43;;;;;;;;;;;;;;;19.44;51.90;102716.59;7401512;19;1978;-41
2023/02/07 10:50:15;;;;;;;;;;;;;;;19.30;52.24;102719.22;7401257;19;1939;-40
2023/02/07 10:52:47;;;;;;;;;;;;;;;19.36;51.93;102720.66;7402480;19;1372;-40
2023/02/07 10:55:19;;;;;;;;;;;;;;;19.48;51.95;102718.13;7401666;19;1722;-40
2023/02/07 10:57:54;;;;;;;;;;;;;;;19.65;51.70;102710.88;7401002;19;1861;-41
2023/02/07 11:00:25;;;;;;;;;;;;;;;19.66;52.05;102710.81;7401304;19;1735;-41
2023/02/07 11:02:54;;;;;;;;;;;;;;;19.70;52.44;102711.50;7400644;19;1577;-41
2023/02/07 11:05:30;;;;;;;;;;;;;;;19.69;53.38;102693.63;7400132;19;1495;-41
2023/02/07 11:08:03;;;;;;;;;;;;;;;19.67;54.34;102699.09;7400013;19;1628;-41
2023/02/07 11:10:34;;;;;;;;;;;;;;;19.55;55.15;102694.47;7400275;19;1646;-40
2023/02/07 11:13:03;;;;;;;;;;;;;;;19.51;55.74;102698.28;7400234;19;1779;-40
2023/02/07 11:15:38;;;;;;;;;;;;;;;19.39;57.05;102694.53;7403254;19;1013;-40
2023/02/07 11:18:07;;;;;;;;;;;;;;;19.37;58.22;102701.81;7398256;19;2007;-40
2023/02/07 11:20:37;;;;;;;;;;;;;;;19.42;58.09;102680.94;7401665;19;1878;-40
2023/02/07 11:23:12;;;;;;;;;;;;;;;19.43;58.62;102684.47;7401371;19;1564;-41
2023/02/07 11:25:43;;;;;;;;;;;;;;;19.47;58.74;102668.09;7401281;19;1120;-40
2023/02/07 11:28:17;;;;;;;;;;;;;;;19.39;59.58;102673.06;7401964;19;1916;-40
2023/02/07 11:30:46;;;;;;;;;;;;;;;19.50;59.16;102661.69;7400939;19;2055;-40
2023/02/07 11:33:18;;;;;;;;;;;;;;;19.44;59.28;102668.31;7399890;19;1792;-40
2023/02/07 11:36:03;;;;;;;;;;;;;;;19.49;59.68;102668.00;7400546;19;1599;-41
2023/02/07 11:38:38;;;;;;;;;;;;;;;19.23;60.39;102650.78;7397230;19;1853;-41
2023/02/07 11:41:06;;;;;;;;;;;;;;;19.11;59.98;102670.28;7401055;19;1753;-41
2023/02/07 11:43:35;;;;;;;;;;;;;;;19.25;60.22;102656.94;7399857;19;1616;-40
2023/02/07 11:46:10;;;;;;;;;;;;;;;19.38;59.70;102655.25;7401351;19;1603;-41
2023/02/07 11:48:39;;;;;;;;;;;;;;;19.61;59.49;102667.25;7397528;19;2054;-40
2023/02/07 11:51:09;;;;;;;;;;;;;;;19.69;59.64;102653.38;7400006;19;1627;-40
2023/02/07 11:53:41;;;;;;;;;;;;;;;19.70;59.90;102649.75;7398531;19;2025;-40
2023/02/07 11:56:22;;;;;;;;;;;;;;;19.63;59.66;102656.44;7400615;19;1721;-40
2023/02/07 11:58:50;;;;;;;;;;;;;;;19.62;60.25;102652.03;7398942;19;1872;-41
2023/02/07 12:01:19;;;;;;;;;;;;;;;19.53;60.01;102639.19;7397224;19;1802;-40
2023/02/07 12:03:51;;;;;;;;;;;;;;;19.42;60.52;102640.69;7398346;19;2056;-41
2023/02/07 12:06:22;;;;;;;;;;;;;;;19.57;60.10;102640.72;7397686;19;1765;-41
2023/02/07 12:08:53;;;;;;;;;;;;;;;19.56;59.88;102636.31;7400393;19;1879;-41
2023/02/07 12:11:24;;;;;;;;;;;;;;;19.53;60.48;102648.09;7397735;19;2043;-41
2023/02/07 12:13:54;;;;;;;;;;;;;;;19.57;60.07;102643.41;7399231;19;1999;-41
2023/02/07 12:16:25;;;;;;;;;;;;;;;19.54;60.46;102643.59;7400228;19;1016;-41
2023/02/07 12:18:57;;;;;;;;;;;;;;;19.53;60.71;102644.53;7398337;19;2028;-41
2023/02/07 12:21:29;;;;;;;;;;;;;;;19.52;61.05;102654.41;7399890;19;1703;-41
2023/02/07 12:24:02;;;;;;;;;;;;;;;19.48;61.71;102634.97;7399659;19;1615;-41
2023/02/07 12:26:31;;;;;;;;;;;;;;;19.59;62.55;102646.84;7399248;19;1825;-40
2023/02/07 12:29:17;;;;;;;;;;;;;;;19.57;62.60;102640.72;7396625;19;2176;-41
2023/02/07 12:31:51;;;;;;;;;;;;;;;19.57;62.80;102646.09;7399330;19;1732;-41
2023/02/07 12:34:21;;;;;;;;;;;;;;;19.74;62.77;102635.22;7398075;19;2071;-41
2023/02/07 12:36:52;;;;;;;;;;;;;;;19.91;62.92;102646.72;7399501;19;1996;-41
2023/02/07 12:39:28;;;;;;;;;;;;;;;19.85;63.56;102648.81;7395742;19;1844;-41
2023/02/07 12:42:00;;;;;;;;;;;;;;;19.75;63.67;102636.94;7397986;19;1848;-41
2023/02/07 12:44:33;;;;;;;;;;;;;;;19.71;64.11;102630.03;7396333;19;1815;-41
2023/02/07 12:47:04;;;;;;;;;;;;;;;19.76;63.81;102632.44;7397879;19;1799;-41
2023/02/07 12:49:43;;;;;;;;;;;;;;;19.75;64.19;102628.88;7398067;19;2035;-41
2023/02/07 12:52:19;;;;;;;;;;;;;;;19.79;64.44;102622.34;7396991;19;1882;-41
2023/02/07 12:54:56;;;;;;;;;;;;;;;19.90;64.11;102613.66;7396595;19;1795;-42
2023/02/07 12:57:30;;;;;;;;;;;;;;;19.97;63.66;102624.84;7398287;19;1621;-41
2023/02/07 13:00:05;;;;;;;;;;;;;;;19.99;63.60;102625.63;7400455;19;1910;-42
2023/02/07 13:02:39;;;;;;;;;;;;;;;20.01;62.77;102607.59;7400376;19;1953;-41